sensor_id;sensor_type;location;lat;lon;timestamp;temperature;humidity
14577;DHT22;7375;46.072;14.470;2022-12-11T00:00:36;19.20;64.10
14577;DHT22;7375;46.072;14.470;2022-12-11T00:03:03;19.20;64.20
14577;DHT22;7375;46.072;14.470;2022-12-11T00:05:29;19.20;64.10
14577;DHT22;7375;46.072;14.470;2022-12-11T00:07:56;19.20;64.10
14577;DHT22;7375;46.072;14.470;2022-12-11T00:10:23;19.20;64.10
14577;DHT22;7375;46.072;14.470;2022-12-11T00:12:50;19.20;64.10
14577;DHT22;7375;46.072;14.470;2022-12-11T00:15:18;19.20;64.10
14577;DHT22;7375;46.072;14.470;2022-12-11T00:17:45;19.20;64.10
14577;DHT22;7375;46.072;14.470;2022-12-11T00:20:12;19.20;64.20
14577;DHT22;7375;46.072;14.470;2022-12-11T00:22:38;19.20;64.30
14577;DHT22;7375;46.072;14.470;2022-12-11T00:25:05;19.20;64.30
14577;DHT22;7375;46.072;14.470;2022-12-11T00:27:32;19.20;64.30
14577;DHT22;7375;46.072;14.470;2022-12-11T00:29:59;19.10;64.20
14577;DHT22;7375;46.072;14.470;2022-12-11T00:32:27;19.10;64.30
14577;DHT22;7375;46.072;14.470;2022-12-11T00:34:54;19.10;64.30
14577;DHT22;7375;46.072;14.470;2022-12-11T00:37:20;19.10;64.30
14577;DHT22;7375;46.072;14.470;2022-12-11T00:39:47;19.10;64.30
14577;DHT22;7375;46.072;14.470;2022-12-11T00:42:14;19.10;64.40
14577;DHT22;7375;46.072;14.470;2022-12-11T00:44:40;19.10;64.40
14577;DHT22;7375;46.072;14.470;2022-12-11T00:47:07;19.10;64.40
14577;DHT22;7375;46.072;14.470;2022-12-11T00:49:35;19.10;64.30
14577;DHT22;7375;46.072;14.470;2022-12-11T00:52:02;19.10;64.50
14577;DHT22;7375;46.072;14.470;2022-12-11T00:54:29;19.10;64.50
14577;DHT22;7375;46.072;14.470;2022-12-11T00:56:56;19.10;64.50
14577;DHT22;7375;46.072;14.470;2022-12-11T00:59:22;19.10;64.40
14577;DHT22;7375;46.072;14.470;2022-12-11T01:01:49;19.10;64.60
14577;DHT22;7375;46.072;14.470;2022-12-11T01:04:16;19.00;64.60
14577;DHT22;7375;46.072;14.470;2022-12-11T01:06:44;19.00;64.50
14577;DHT22;7375;46.072;14.470;2022-12-11T01:09:11;19.00;64.50
14577;DHT22;7375;46.072;14.470;2022-12-11T01:11:58;19.00;64.50
14577;DHT22;7375;46.072;14.470;2022-12-11T01:14:25;19.00;64.60
14577;DHT22;7375;46.072;14.470;2022-12-11T01:16:52;19.00;64.60
14577;DHT22;7375;46.072;14.470;2022-12-11T01:19:19;19.00;64.60
14577;DHT22;7375;46.072;14.470;2022-12-11T01:21:47;19.00;64.60
14577;DHT22;7375;46.072;14.470;2022-12-11T01:24:13;19.00;64.70
14577;DHT22;7375;46.072;14.470;2022-12-11T01:26:40;19.00;64.70
14577;DHT22;7375;46.072;14.470;2022-12-11T01:29:07;19.00;64.70
14577;DHT22;7375;46.072;14.470;2022-12-11T01:31:34;19.00;64.70
14577;DHT22;7375;46.072;14.470;2022-12-11T01:34:00;19.00;64.70
14577;DHT22;7375;46.072;14.470;2022-12-11T01:36:27;19.00;64.90
14577;DHT22;7375;46.072;14.470;2022-12-11T01:38:55;19.00;64.90
14577;DHT22;7375;46.072;14.470;2022-12-11T01:41:22;19.00;64.80
14577;DHT22;7375;46.072;14.470;2022-12-11T01:43:59;19.00;64.90
14577;DHT22;7375;46.072;14.470;2022-12-11T01:46:27;19.00;64.90
14577;DHT22;7375;46.072;14.470;2022-12-11T01:48:54;19.00;64.90
14577;DHT22;7375;46.072;14.470;2022-12-11T01:51:21;19.00;64.90
14577;DHT22;7375;46.072;14.470;2022-12-11T01:53:49;19.00;64.90
14577;DHT22;7375;46.072;14.470;2022-12-11T01:56:18;18.90;64.90
14577;DHT22;7375;46.072;14.470;2022-12-11T01:58:46;18.90;65.00
14577;DHT22;7375;46.072;14.470;2022-12-11T02:01:14;18.90;65.00
14577;DHT22;7375;46.072;14.470;2022-12-11T02:03:44;18.90;65.00
14577;DHT22;7375;46.072;14.470;2022-12-11T02:08:52;18.90;65.10
14577;DHT22;7375;46.072;14.470;2022-12-11T02:11:20;18.90;65.10
14577;DHT22;7375;46.072;14.470;2022-12-11T02:13:51;18.90;65.20
14577;DHT22;7375;46.072;14.470;2022-12-11T02:16:22;18.90;65.20
14577;DHT22;7375;46.072;14.470;2022-12-11T02:18:52;18.90;65.20
14577;DHT22;7375;46.072;14.470;2022-12-11T02:21:22;18.90;65.30
14577;DHT22;7375;46.072;14.470;2022-12-11T02:29:34;18.90;65.30
14577;DHT22;7375;46.072;14.470;2022-12-11T02:32:02;18.90;65.20
14577;DHT22;7375;46.072;14.470;2022-12-11T02:34:31;18.90;65.30
14577;DHT22;7375;46.072;14.470;2022-12-11T02:37:01;18.90;65.30
14577;DHT22;7375;46.072;14.470;2022-12-11T02:39:29;18.90;65.40
14577;DHT22;7375;46.072;14.470;2022-12-11T02:41:57;18.90;65.40
14577;DHT22;7375;46.072;14.470;2022-12-11T02:44:26;18.90;65.40
14577;DHT22;7375;46.072;14.470;2022-12-11T02:46:55;18.90;65.30
14577;DHT22;7375;46.072;14.470;2022-12-11T02:49:23;18.90;65.40
14577;DHT22;7375;46.072;14.470;2022-12-11T02:51:52;18.80;65.20
14577;DHT22;7375;46.072;14.470;2022-12-11T02:54:21;18.90;65.40
14577;DHT22;7375;46.072;14.470;2022-12-11T02:56:49;18.90;65.40
14577;DHT22;7375;46.072;14.470;2022-12-11T02:59:18;18.90;65.40
14577;DHT22;7375;46.072;14.470;2022-12-11T03:01:46;18.90;65.40
14577;DHT22;7375;46.072;14.470;2022-12-11T03:04:14;18.90;65.40
14577;DHT22;7375;46.072;14.470;2022-12-11T03:06:41;18.90;65.40
14577;DHT22;7375;46.072;14.470;2022-12-11T03:09:09;18.80;65.40
14577;DHT22;7375;46.072;14.470;2022-12-11T03:11:36;18.80;65.40
14577;DHT22;7375;46.072;14.470;2022-12-11T03:14:02;18.80;65.30
14577;DHT22;7375;46.072;14.470;2022-12-11T03:16:31;18.80;65.30
14577;DHT22;7375;46.072;14.470;2022-12-11T03:19:01;18.80;65.40
14577;DHT22;7375;46.072;14.470;2022-12-11T03:21:33;18.80;65.40
14577;DHT22;7375;46.072;14.470;2022-12-11T03:24:02;18.80;65.40
14577;DHT22;7375;46.072;14.470;2022-12-11T03:26:29;18.80;65.30
14577;DHT22;7375;46.072;14.470;2022-12-11T03:28:58;18.80;65.40
14577;DHT22;7375;46.072;14.470;2022-12-11T03:31:30;18.80;65.40
14577;DHT22;7375;46.072;14.470;2022-12-11T03:33:58;18.80;65.40
14577;DHT22;7375;46.072;14.470;2022-12-11T03:36:29;18.80;65.40
14577;DHT22;7375;46.072;14.470;2022-12-11T03:38:58;18.80;65.30
14577;DHT22;7375;46.072;14.470;2022-12-11T03:41:26;18.80;65.40
14577;DHT22;7375;46.072;14.470;2022-12-11T03:43:54;18.80;65.40
14577;DHT22;7375;46.072;14.470;2022-12-11T03:46:23;18.80;65.30
14577;DHT22;7375;46.072;14.470;2022-12-11T03:48:52;18.80;65.30
14577;DHT22;7375;46.072;14.470;2022-12-11T03:51:21;18.80;65.40
14577;DHT22;7375;46.072;14.470;2022-12-11T03:53:49;18.80;65.40
14577;DHT22;7375;46.072;14.470;2022-12-11T03:56:18;18.80;65.40
14577;DHT22;7375;46.072;14.470;2022-12-11T03:58:46;18.80;65.40
14577;DHT22;7375;46.072;14.470;2022-12-11T04:01:12;18.80;65.40
14577;DHT22;7375;46.072;14.470;2022-12-11T04:03:39;18.80;65.40
14577;DHT22;7375;46.072;14.470;2022-12-11T04:06:06;18.80;65.40
14577;DHT22;7375;46.072;14.470;2022-12-11T04:08:33;18.70;65.30
14577;DHT22;7375;46.072;14.470;2022-12-11T04:11:01;18.80;65.40
14577;DHT22;7375;46.072;14.470;2022-12-11T04:13:47;18.70;65.20
14577;DHT22;7375;46.072;14.470;2022-12-11T04:16:34;18.70;65.30
14577;DHT22;7375;46.072;14.470;2022-12-11T04:19:00;18.70;65.30
14577;DHT22;7375;46.072;14.470;2022-12-11T04:21:44;18.70;65.20
14577;DHT22;7375;46.072;14.470;2022-12-11T04:24:29;18.70;65.20
14577;DHT22;7375;46.072;14.470;2022-12-11T04:26:55;18.80;65.30
14577;DHT22;7375;46.072;14.470;2022-12-11T04:29:23;18.70;65.20
14577;DHT22;7375;46.072;14.470;2022-12-11T04:31:50;18.70;65.20
14577;DHT22;7375;46.072;14.470;2022-12-11T04:34:17;18.70;65.20
14577;DHT22;7375;46.072;14.470;2022-12-11T04:36:44;18.70;65.30
14577;DHT22;7375;46.072;14.470;2022-12-11T04:39:10;18.70;65.30
14577;DHT22;7375;46.072;14.470;2022-12-11T04:41:37;18.70;65.30
14577;DHT22;7375;46.072;14.470;2022-12-11T04:44:05;18.70;65.30
14577;DHT22;7375;46.072;14.470;2022-12-11T04:46:34;18.70;65.30
14577;DHT22;7375;46.072;14.470;2022-12-11T04:49:01;18.70;65.30
14577;DHT22;7375;46.072;14.470;2022-12-11T04:51:27;18.70;65.30
14577;DHT22;7375;46.072;14.470;2022-12-11T04:53:54;18.70;65.40
14577;DHT22;7375;46.072;14.470;2022-12-11T04:56:21;18.70;65.40
14577;DHT22;7375;46.072;14.470;2022-12-11T04:58:48;18.70;65.40
14577;DHT22;7375;46.072;14.470;2022-12-11T05:01:15;18.70;65.40
14577;DHT22;7375;46.072;14.470;2022-12-11T05:03:43;18.70;65.40
14577;DHT22;7375;46.072;14.470;2022-12-11T05:06:10;18.70;65.30
14577;DHT22;7375;46.072;14.470;2022-12-11T05:08:38;18.70;65.30
14577;DHT22;7375;46.072;14.470;2022-12-11T05:11:06;18.70;65.30
14577;DHT22;7375;46.072;14.470;2022-12-11T05:13:34;18.70;65.30
14577;DHT22;7375;46.072;14.470;2022-12-11T05:16:02;18.70;65.30
14577;DHT22;7375;46.072;14.470;2022-12-11T05:18:29;18.70;65.30
14577;DHT22;7375;46.072;14.470;2022-12-11T05:20:57;18.70;65.30
14577;DHT22;7375;46.072;14.470;2022-12-11T05:23:24;18.70;65.30
14577;DHT22;7375;46.072;14.470;2022-12-11T05:25:51;18.70;65.20
14577;DHT22;7375;46.072;14.470;2022-12-11T05:28:19;18.70;65.30
14577;DHT22;7375;46.072;14.470;2022-12-11T05:30:46;18.70;65.20
14577;DHT22;7375;46.072;14.470;2022-12-11T05:33:12;18.70;65.20
14577;DHT22;7375;46.072;14.470;2022-12-11T05:35:45;18.70;65.20
14577;DHT22;7375;46.072;14.470;2022-12-11T05:38:13;18.70;65.30
14577;DHT22;7375;46.072;14.470;2022-12-11T05:40:40;18.70;65.20
14577;DHT22;7375;46.072;14.470;2022-12-11T05:43:07;18.70;65.20
14577;DHT22;7375;46.072;14.470;2022-12-11T05:45:34;18.70;65.30
14577;DHT22;7375;46.072;14.470;2022-12-11T05:48:00;18.70;65.20
14577;DHT22;7375;46.072;14.470;2022-12-11T05:50:27;18.70;65.10
14577;DHT22;7375;46.072;14.470;2022-12-11T05:52:54;18.70;65.20
14577;DHT22;7375;46.072;14.470;2022-12-11T05:55:27;18.70;65.20
14577;DHT22;7375;46.072;14.470;2022-12-11T05:57:54;18.70;65.20
14577;DHT22;7375;46.072;14.470;2022-12-11T06:00:20;18.70;65.20
14577;DHT22;7375;46.072;14.470;2022-12-11T06:02:47;18.70;65.20
14577;DHT22;7375;46.072;14.470;2022-12-11T06:05:14;18.70;65.20
14577;DHT22;7375;46.072;14.470;2022-12-11T06:07:40;18.70;65.20
14577;DHT22;7375;46.072;14.470;2022-12-11T06:10:08;18.70;65.20
14577;DHT22;7375;46.072;14.470;2022-12-11T06:12:36;18.70;65.30
14577;DHT22;7375;46.072;14.470;2022-12-11T06:15:03;18.70;65.30
14577;DHT22;7375;46.072;14.470;2022-12-11T06:17:30;18.70;65.20
14577;DHT22;7375;46.072;14.470;2022-12-11T06:19:57;18.60;65.10
14577;DHT22;7375;46.072;14.470;2022-12-11T06:22:23;18.70;65.20
14577;DHT22;7375;46.072;14.470;2022-12-11T06:24:50;18.70;65.30
14577;DHT22;7375;46.072;14.470;2022-12-11T06:27:17;18.60;65.20
14577;DHT22;7375;46.072;14.470;2022-12-11T06:29:46;18.70;65.30
14577;DHT22;7375;46.072;14.470;2022-12-11T06:32:13;18.60;65.10
14577;DHT22;7375;46.072;14.470;2022-12-11T06:34:39;18.60;65.20
14577;DHT22;7375;46.072;14.470;2022-12-11T06:37:06;18.70;65.20
14577;DHT22;7375;46.072;14.470;2022-12-11T06:39:33;18.70;65.20
14577;DHT22;7375;46.072;14.470;2022-12-11T06:42:00;18.60;65.10
14577;DHT22;7375;46.072;14.470;2022-12-11T06:44:26;18.60;65.10
14577;DHT22;7375;46.072;14.470;2022-12-11T06:46:55;18.70;65.20
14577;DHT22;7375;46.072;14.470;2022-12-11T06:49:21;18.60;65.10
14577;DHT22;7375;46.072;14.470;2022-12-11T06:51:48;18.60;65.10
14577;DHT22;7375;46.072;14.470;2022-12-11T06:54:15;18.60;65.10
14577;DHT22;7375;46.072;14.470;2022-12-11T06:56:42;18.60;65.20
14577;DHT22;7375;46.072;14.470;2022-12-11T06:59:09;18.60;65.10
14577;DHT22;7375;46.072;14.470;2022-12-11T07:01:36;18.60;65.10
14577;DHT22;7375;46.072;14.470;2022-12-11T07:04:04;18.60;65.10
14577;DHT22;7375;46.072;14.470;2022-12-11T07:06:31;18.60;65.20
14577;DHT22;7375;46.072;14.470;2022-12-11T07:08:58;18.60;65.10
14577;DHT22;7375;46.072;14.470;2022-12-11T07:11:25;18.60;65.10
14577;DHT22;7375;46.072;14.470;2022-12-11T07:13:51;18.60;65.00
14577;DHT22;7375;46.072;14.470;2022-12-11T07:16:18;18.60;65.00
14577;DHT22;7375;46.072;14.470;2022-12-11T07:18:46;18.60;64.90
14577;DHT22;7375;46.072;14.470;2022-12-11T07:21:14;18.60;64.90
14577;DHT22;7375;46.072;14.470;2022-12-11T07:23:41;18.60;64.90
14577;DHT22;7375;46.072;14.470;2022-12-11T07:26:09;18.60;64.80
14577;DHT22;7375;46.072;14.470;2022-12-11T07:28:35;18.60;64.70
14577;DHT22;7375;46.072;14.470;2022-12-11T07:31:05;18.60;64.70
14577;DHT22;7375;46.072;14.470;2022-12-11T07:33:32;18.60;64.60
14577;DHT22;7375;46.072;14.470;2022-12-11T07:36:00;18.60;64.60
14577;DHT22;7375;46.072;14.470;2022-12-11T07:38:28;18.60;65.10
14577;DHT22;7375;46.072;14.470;2022-12-11T07:40:55;18.60;64.50
14577;DHT22;7375;46.072;14.470;2022-12-11T07:43:25;18.60;64.50
14577;DHT22;7375;46.072;14.470;2022-12-11T07:45:52;18.60;64.50
14577;DHT22;7375;46.072;14.470;2022-12-11T07:48:19;18.60;64.40
14577;DHT22;7375;46.072;14.470;2022-12-11T07:50:45;18.60;64.40
14577;DHT22;7375;46.072;14.470;2022-12-11T07:53:12;18.60;64.30
14577;DHT22;7375;46.072;14.470;2022-12-11T07:55:40;18.60;64.20
14577;DHT22;7375;46.072;14.470;2022-12-11T07:58:07;18.60;64.30
14577;DHT22;7375;46.072;14.470;2022-12-11T08:00:33;18.60;64.20
14577;DHT22;7375;46.072;14.470;2022-12-11T08:03:00;18.60;64.10
14577;DHT22;7375;46.072;14.470;2022-12-11T08:05:27;18.60;64.10
14577;DHT22;7375;46.072;14.470;2022-12-11T08:07:54;18.60;64.10
14577;DHT22;7375;46.072;14.470;2022-12-11T08:10:20;18.60;64.10
14577;DHT22;7375;46.072;14.470;2022-12-11T08:12:49;18.60;64.00
14577;DHT22;7375;46.072;14.470;2022-12-11T08:15:15;18.60;63.90
14577;DHT22;7375;46.072;14.470;2022-12-11T08:17:42;18.60;64.00
14577;DHT22;7375;46.072;14.470;2022-12-11T08:20:09;18.60;63.90
14577;DHT22;7375;46.072;14.470;2022-12-11T08:22:36;18.60;63.90
14577;DHT22;7375;46.072;14.470;2022-12-11T08:25:03;18.60;63.90
14577;DHT22;7375;46.072;14.470;2022-12-11T08:27:33;18.60;63.80
14577;DHT22;7375;46.072;14.470;2022-12-11T08:30:01;18.60;63.80
14577;DHT22;7375;46.072;14.470;2022-12-11T08:32:28;18.50;63.70
14577;DHT22;7375;46.072;14.470;2022-12-11T08:34:54;18.60;63.80
14577;DHT22;7375;46.072;14.470;2022-12-11T08:37:21;18.60;63.70
14577;DHT22;7375;46.072;14.470;2022-12-11T08:39:48;18.60;63.70
14577;DHT22;7375;46.072;14.470;2022-12-11T08:42:15;18.60;63.60
14577;DHT22;7375;46.072;14.470;2022-12-11T08:44:42;18.50;63.60
14577;DHT22;7375;46.072;14.470;2022-12-11T08:47:10;18.50;63.50
14577;DHT22;7375;46.072;14.470;2022-12-11T08:49:39;18.60;63.60
14577;DHT22;7375;46.072;14.470;2022-12-11T08:52:06;18.60;63.60
14577;DHT22;7375;46.072;14.470;2022-12-11T08:54:33;18.50;63.60
14577;DHT22;7375;46.072;14.470;2022-12-11T08:56:59;18.60;63.90
14577;DHT22;7375;46.072;14.470;2022-12-11T08:59:26;18.60;63.90
14577;DHT22;7375;46.072;14.470;2022-12-11T09:01:53;18.60;63.90
14577;DHT22;7375;46.072;14.470;2022-12-11T09:04:21;18.60;64.00
14577;DHT22;7375;46.072;14.470;2022-12-11T09:06:52;18.60;63.80
14577;DHT22;7375;46.072;14.470;2022-12-11T09:09:19;18.50;63.80
14577;DHT22;7375;46.072;14.470;2022-12-11T09:11:49;18.60;63.90
14577;DHT22;7375;46.072;14.470;2022-12-11T09:14:25;18.60;63.90
14577;DHT22;7375;46.072;14.470;2022-12-11T09:16:55;18.60;63.80
14577;DHT22;7375;46.072;14.470;2022-12-11T09:19:24;18.60;63.90
14577;DHT22;7375;46.072;14.470;2022-12-11T09:21:51;18.60;63.90
14577;DHT22;7375;46.072;14.470;2022-12-11T09:24:21;18.60;63.80
14577;DHT22;7375;46.072;14.470;2022-12-11T09:26:47;18.50;63.70
14577;DHT22;7375;46.072;14.470;2022-12-11T09:29:14;18.60;63.70
14577;DHT22;7375;46.072;14.470;2022-12-11T09:31:41;18.60;63.70
14577;DHT22;7375;46.072;14.470;2022-12-11T09:34:11;18.60;63.60
14577;DHT22;7375;46.072;14.470;2022-12-11T09:36:40;18.60;63.70
14577;DHT22;7375;46.072;14.470;2022-12-11T09:39:09;18.60;63.80
14577;DHT22;7375;46.072;14.470;2022-12-11T09:41:44;18.60;63.90
14577;DHT22;7375;46.072;14.470;2022-12-11T09:46:59;18.60;64.30
14577;DHT22;7375;46.072;14.470;2022-12-11T09:49:29;18.60;64.60
14577;DHT22;7375;46.072;14.470;2022-12-11T09:52:05;18.60;64.80
14577;DHT22;7375;46.072;14.470;2022-12-11T09:54:34;18.60;65.10
14577;DHT22;7375;46.072;14.470;2022-12-11T09:57:03;18.60;65.20
14577;DHT22;7375;46.072;14.470;2022-12-11T09:59:36;18.50;65.40
14577;DHT22;7375;46.072;14.470;2022-12-11T10:02:13;18.50;65.50
14577;DHT22;7375;46.072;14.470;2022-12-11T10:04:44;18.60;65.50
14577;DHT22;7375;46.072;14.470;2022-12-11T10:07:14;18.60;65.40
14577;DHT22;7375;46.072;14.470;2022-12-11T10:09:42;18.60;65.20
14577;DHT22;7375;46.072;14.470;2022-12-11T10:12:19;18.60;64.90
14577;DHT22;7375;46.072;14.470;2022-12-11T10:14:57;18.60;65.50
14577;DHT22;7375;46.072;14.470;2022-12-11T10:17:26;18.60;66.20
14577;DHT22;7375;46.072;14.470;2022-12-11T10:19:54;18.70;66.40
14577;DHT22;7375;46.072;14.470;2022-12-11T10:22:25;18.70;66.60
14577;DHT22;7375;46.072;14.470;2022-12-11T10:24:55;18.80;66.40
14577;DHT22;7375;46.072;14.470;2022-12-11T10:27:23;18.80;66.20
14577;DHT22;7375;46.072;14.470;2022-12-11T10:29:53;18.80;66.00
14577;DHT22;7375;46.072;14.470;2022-12-11T10:32:22;18.80;65.90
14577;DHT22;7375;46.072;14.470;2022-12-11T10:34:50;18.80;65.70
14577;DHT22;7375;46.072;14.470;2022-12-11T10:37:20;18.80;65.00
14577;DHT22;7375;46.072;14.470;2022-12-11T10:39:48;18.80;64.20
14577;DHT22;7375;46.072;14.470;2022-12-11T10:42:16;18.80;63.80
14577;DHT22;7375;46.072;14.470;2022-12-11T10:44:54;18.80;63.60
14577;DHT22;7375;46.072;14.470;2022-12-11T10:47:22;18.80;63.60
14577;DHT22;7375;46.072;14.470;2022-12-11T10:49:50;18.80;63.20
14577;DHT22;7375;46.072;14.470;2022-12-11T10:52:19;18.90;63.20
14577;DHT22;7375;46.072;14.470;2022-12-11T10:54:46;18.90;63.00
14577;DHT22;7375;46.072;14.470;2022-12-11T10:57:24;18.90;63.00
14577;DHT22;7375;46.072;14.470;2022-12-11T10:59:51;18.90;62.90
14577;DHT22;7375;46.072;14.470;2022-12-11T11:02:20;19.00;62.80
14577;DHT22;7375;46.072;14.470;2022-12-11T11:04:48;19.00;62.70
14577;DHT22;7375;46.072;14.470;2022-12-11T11:07:18;19.00;62.60
14577;DHT22;7375;46.072;14.470;2022-12-11T11:09:45;19.10;62.60
14577;DHT22;7375;46.072;14.470;2022-12-11T11:12:19;19.10;62.50
14577;DHT22;7375;46.072;14.470;2022-12-11T11:14:56;19.10;62.50
14577;DHT22;7375;46.072;14.470;2022-12-11T11:17:23;19.10;62.50
14577;DHT22;7375;46.072;14.470;2022-12-11T11:19:50;19.00;62.40
14577;DHT22;7375;46.072;14.470;2022-12-11T11:22:17;19.10;62.50
14577;DHT22;7375;46.072;14.470;2022-12-11T11:24:45;19.10;62.40
14577;DHT22;7375;46.072;14.470;2022-12-11T11:27:19;19.10;62.40
14577;DHT22;7375;46.072;14.470;2022-12-11T11:29:51;19.10;62.30
14577;DHT22;7375;46.072;14.470;2022-12-11T11:32:21;19.10;62.30
14577;DHT22;7375;46.072;14.470;2022-12-11T11:34:48;19.10;62.30
14577;DHT22;7375;46.072;14.470;2022-12-11T11:37:21;19.00;62.30
14577;DHT22;7375;46.072;14.470;2022-12-11T11:39:48;19.10;62.30
14577;DHT22;7375;46.072;14.470;2022-12-11T11:42:19;19.10;62.20
14577;DHT22;7375;46.072;14.470;2022-12-11T11:44:57;19.10;62.70
14577;DHT22;7375;46.072;14.470;2022-12-11T11:47:26;19.10;62.10
14577;DHT22;7375;46.072;14.470;2022-12-11T11:49:54;19.10;62.10
14577;DHT22;7375;46.072;14.470;2022-12-11T11:52:26;19.10;62.00
14577;DHT22;7375;46.072;14.470;2022-12-11T11:54:56;19.10;62.00
14577;DHT22;7375;46.072;14.470;2022-12-11T11:57:31;19.10;61.90
14577;DHT22;7375;46.072;14.470;2022-12-11T12:00:00;19.10;61.80
14577;DHT22;7375;46.072;14.470;2022-12-11T12:02:34;19.10;61.80
14577;DHT22;7375;46.072;14.470;2022-12-11T12:05:02;19.10;61.70
14577;DHT22;7375;46.072;14.470;2022-12-11T12:07:31;19.10;61.80
14577;DHT22;7375;46.072;14.470;2022-12-11T12:10:06;19.10;61.80
14577;DHT22;7375;46.072;14.470;2022-12-11T12:12:37;19.10;61.70
14577;DHT22;7375;46.072;14.470;2022-12-11T12:15:17;19.10;61.60
14577;DHT22;7375;46.072;14.470;2022-12-11T12:17:47;19.10;61.50
14577;DHT22;7375;46.072;14.470;2022-12-11T12:20:18;19.10;61.50
14577;DHT22;7375;46.072;14.470;2022-12-11T12:22:56;19.10;61.50
14577;DHT22;7375;46.072;14.470;2022-12-11T12:25:27;19.10;61.50
14577;DHT22;7375;46.072;14.470;2022-12-11T12:27:59;19.10;61.50
14577;DHT22;7375;46.072;14.470;2022-12-11T12:30:36;19.10;61.50
14577;DHT22;7375;46.072;14.470;2022-12-11T12:33:09;19.10;61.50
14577;DHT22;7375;46.072;14.470;2022-12-11T12:35:41;19.10;61.40
14577;DHT22;7375;46.072;14.470;2022-12-11T12:38:12;19.10;61.40
14577;DHT22;7375;46.072;14.470;2022-12-11T12:40:43;19.10;61.40
14577;DHT22;7375;46.072;14.470;2022-12-11T12:43:22;19.10;61.40
14577;DHT22;7375;46.072;14.470;2022-12-11T12:45:52;19.10;61.50
14577;DHT22;7375;46.072;14.470;2022-12-11T12:48:22;19.10;61.50
14577;DHT22;7375;46.072;14.470;2022-12-11T12:50:50;19.00;61.30
14577;DHT22;7375;46.072;14.470;2022-12-11T12:53:17;19.00;61.40
14577;DHT22;7375;46.072;14.470;2022-12-11T12:55:45;19.00;61.40
14577;DHT22;7375;46.072;14.470;2022-12-11T12:58:26;19.00;61.30
14577;DHT22;7375;46.072;14.470;2022-12-11T13:00:55;19.00;61.30
14577;DHT22;7375;46.072;14.470;2022-12-11T13:03:33;19.00;61.30
14577;DHT22;7375;46.072;14.470;2022-12-11T13:06:01;19.00;61.20
14577;DHT22;7375;46.072;14.470;2022-12-11T13:08:30;19.00;61.20
14577;DHT22;7375;46.072;14.470;2022-12-11T13:10:59;19.00;61.20
14577;DHT22;7375;46.072;14.470;2022-12-11T13:13:32;19.00;61.20
14577;DHT22;7375;46.072;14.470;2022-12-11T13:16:07;19.00;61.10
14577;DHT22;7375;46.072;14.470;2022-12-11T13:18:35;19.00;61.10
14577;DHT22;7375;46.072;14.470;2022-12-11T13:21:02;19.00;61.10
14577;DHT22;7375;46.072;14.470;2022-12-11T13:23:30;19.00;61.00
14577;DHT22;7375;46.072;14.470;2022-12-11T13:26:02;19.00;61.00
14577;DHT22;7375;46.072;14.470;2022-12-11T13:28:32;19.00;60.90
14577;DHT22;7375;46.072;14.470;2022-12-11T13:31:32;19.00;60.80
14577;DHT22;7375;46.072;14.470;2022-12-11T13:34:05;19.00;60.80
14577;DHT22;7375;46.072;14.470;2022-12-11T13:36:33;19.00;60.70
14577;DHT22;7375;46.072;14.470;2022-12-11T13:39:01;19.00;60.80
14577;DHT22;7375;46.072;14.470;2022-12-11T13:41:29;19.00;60.80
14577;DHT22;7375;46.072;14.470;2022-12-11T13:43:57;19.00;60.90
14577;DHT22;7375;46.072;14.470;2022-12-11T13:46:25;18.90;60.80
14577;DHT22;7375;46.072;14.470;2022-12-11T13:48:54;18.90;60.80
14577;DHT22;7375;46.072;14.470;2022-12-11T13:51:25;18.90;60.80
14577;DHT22;7375;46.072;14.470;2022-12-11T13:54:03;18.90;60.80
14577;DHT22;7375;46.072;14.470;2022-12-11T13:56:30;18.90;60.80
14577;DHT22;7375;46.072;14.470;2022-12-11T13:58:57;18.90;60.80
14577;DHT22;7375;46.072;14.470;2022-12-11T14:01:24;18.90;60.80
14577;DHT22;7375;46.072;14.470;2022-12-11T14:03:54;18.90;60.80
14577;DHT22;7375;46.072;14.470;2022-12-11T14:06:21;18.90;60.80
14577;DHT22;7375;46.072;14.470;2022-12-11T14:08:49;18.90;60.80
14577;DHT22;7375;46.072;14.470;2022-12-11T14:11:17;18.80;60.70
14577;DHT22;7375;46.072;14.470;2022-12-11T14:13:46;18.80;60.70
14577;DHT22;7375;46.072;14.470;2022-12-11T14:16:15;18.80;60.80
14577;DHT22;7375;46.072;14.470;2022-12-11T14:18:46;18.80;60.80
14577;DHT22;7375;46.072;14.470;2022-12-11T14:21:17;18.80;60.80
14577;DHT22;7375;46.072;14.470;2022-12-11T14:23:49;18.80;60.80
14577;DHT22;7375;46.072;14.470;2022-12-11T14:26:17;18.80;60.80
14577;DHT22;7375;46.072;14.470;2022-12-11T14:28:45;18.80;60.80
14577;DHT22;7375;46.072;14.470;2022-12-11T14:31:12;18.80;60.70
14577;DHT22;7375;46.072;14.470;2022-12-11T14:33:41;18.80;60.80
14577;DHT22;7375;46.072;14.470;2022-12-11T14:36:09;18.80;60.70
14577;DHT22;7375;46.072;14.470;2022-12-11T14:38:39;18.80;60.70
14577;DHT22;7375;46.072;14.470;2022-12-11T14:41:10;18.80;60.70
14577;DHT22;7375;46.072;14.470;2022-12-11T14:43:40;18.80;60.70
14577;DHT22;7375;46.072;14.470;2022-12-11T14:46:09;18.80;60.60
14577;DHT22;7375;46.072;14.470;2022-12-11T14:48:41;18.70;60.50
14577;DHT22;7375;46.072;14.470;2022-12-11T14:51:09;18.70;60.60
14577;DHT22;7375;46.072;14.470;2022-12-11T14:53:41;18.70;60.60
14577;DHT22;7375;46.072;14.470;2022-12-11T14:56:14;18.70;60.60
14577;DHT22;7375;46.072;14.470;2022-12-11T14:58:42;18.70;60.60
14577;DHT22;7375;46.072;14.470;2022-12-11T15:01:20;18.70;60.50
14577;DHT22;7375;46.072;14.470;2022-12-11T15:03:47;18.70;60.50
14577;DHT22;7375;46.072;14.470;2022-12-11T15:06:22;18.70;60.50
14577;DHT22;7375;46.072;14.470;2022-12-11T15:08:51;18.70;60.50
14577;DHT22;7375;46.072;14.470;2022-12-11T15:11:18;18.70;60.50
14577;DHT22;7375;46.072;14.470;2022-12-11T15:13:47;18.70;60.50
14577;DHT22;7375;46.072;14.470;2022-12-11T15:16:15;18.70;60.50
14577;DHT22;7375;46.072;14.470;2022-12-11T15:18:42;18.70;60.40
14577;DHT22;7375;46.072;14.470;2022-12-11T15:21:09;18.70;60.40
14577;DHT22;7375;46.072;14.470;2022-12-11T15:23:38;18.70;60.50
14577;DHT22;7375;46.072;14.470;2022-12-11T15:26:13;18.70;60.50
14577;DHT22;7375;46.072;14.470;2022-12-11T15:28:40;18.70;60.50
14577;DHT22;7375;46.072;14.470;2022-12-11T15:31:21;18.70;60.50
14577;DHT22;7375;46.072;14.470;2022-12-11T15:33:49;18.70;60.50
14577;DHT22;7375;46.072;14.470;2022-12-11T15:36:20;18.70;60.60
14577;DHT22;7375;46.072;14.470;2022-12-11T15:38:48;18.60;60.40
14577;DHT22;7375;46.072;14.470;2022-12-11T15:41:17;18.70;60.50
14577;DHT22;7375;46.072;14.470;2022-12-11T15:43:45;18.70;60.50
14577;DHT22;7375;46.072;14.470;2022-12-11T15:46:12;18.70;60.50
14577;DHT22;7375;46.072;14.470;2022-12-11T15:48:39;18.60;60.40
14577;DHT22;7375;46.072;14.470;2022-12-11T15:51:06;18.60;60.40